createdAt,value
2023-04-21T00:05:01.851Z,9.2
2023-04-21T00:10:08.292Z,9.2
2023-04-21T00:15:14.670Z,9.2
2023-04-21T00:20:21.079Z,9.2
2023-04-21T00:25:27.441Z,9.2
2023-04-21T00:30:33.826Z,9.2
2023-04-21T00:35:40.240Z,9.2
2023-04-21T00:41:00.634Z,9.2
2023-04-21T00:46:13.659Z,9.2
2023-04-21T00:51:24.179Z,9.2
2023-04-21T00:56:06.465Z,9.2
2023-04-21T01:01:12.918Z,9.1
2023-04-21T01:06:43.346Z,9.1
2023-04-21T01:11:45.682Z,9.1
2023-04-21T01:16:32.073Z,9.1
2023-04-21T01:21:38.392Z,9.1
2023-04-21T01:26:44.925Z,9.1
2023-04-21T01:31:51.321Z,9.1
2023-04-21T01:36:57.681Z,9.1
2023-04-21T01:42:04.090Z,9.1
2023-04-21T01:47:10.441Z,9.1
2023-04-21T01:53:14.065Z,9.1
2023-04-21T01:57:48.418Z,9.1
2023-04-21T02:02:30.819Z,9.1
2023-04-21T02:07:37.094Z,9.1
2023-04-21T02:12:43.478Z,9.1
2023-04-21T02:17:49.945Z,9.1
2023-04-21T02:22:56.237Z,9.2
2023-04-21T02:28:02.625Z,9.2
2023-04-21T02:33:09.170Z,9.2
2023-04-21T02:38:15.617Z,9.2
2023-04-21T02:43:46.067Z,9.3
2023-04-21T02:48:48.445Z,9.3
2023-04-21T02:53:24.739Z,9.3
2023-04-21T02:58:41.176Z,9.3
2023-04-21T03:03:47.646Z,9.3
2023-04-21T03:08:54.055Z,9.4
2023-04-21T03:14:20.563Z,9.4
2023-04-21T03:19:06.892Z,9.4
2023-04-21T03:29:33.663Z,9.4
2023-04-21T03:34:25.996Z,9.5
2023-04-21T03:39:32.368Z,9.5
2023-04-21T03:44:38.962Z,9.5
2023-04-21T03:50:29.532Z,9.5
2023-04-21T03:54:51.718Z,9.5
2023-04-21T04:00:42.223Z,9.5
2023-04-21T04:05:04.517Z,9.5
2023-04-21T04:10:10.884Z,9.6
2023-04-21T04:15:37.402Z,9.6
2023-04-21T04:20:23.660Z,9.6
2023-04-21T04:25:30.036Z,9.6
2023-04-21T04:30:36.437Z,9.6
2023-04-21T04:35:43.398Z,9.6
2023-04-21T04:40:49.746Z,9.6
2023-04-21T04:45:56.146Z,9.6
2023-04-21T04:51:02.537Z,9.6
2023-04-21T04:56:29.086Z,9.6
2023-04-21T05:01:39.512Z,9.6
2023-04-21T05:06:21.860Z,9.7
2023-04-21T05:11:28.209Z,9.7
2023-04-21T05:16:54.747Z,9.7
2023-04-21T05:21:30.964Z,9.7
2023-04-21T05:26:47.331Z,9.7
2023-04-21T05:37:00.144Z,9.8
2023-04-21T05:42:26.488Z,9.8
2023-04-21T05:47:12.837Z,9.8
2023-04-21T05:52:19.246Z,9.9
2023-04-21T05:57:15.560Z,9.9
2023-04-21T06:02:46.299Z,10.0
2023-04-21T06:07:28.338Z,10.0
2023-04-21T06:12:44.718Z,10.0
2023-04-21T06:17:51.139Z,10.1
2023-04-21T06:22:57.496Z,10.2
2023-04-21T06:28:03.978Z,10.3
2023-04-21T06:33:10.423Z,10.4
2023-04-21T06:38:16.794Z,10.5
2023-04-21T06:43:13.128Z,10.6
2023-04-21T06:48:29.524Z,10.6
2023-04-21T06:54:12.989Z,10.7
2023-04-21T06:58:41.276Z,10.8
2023-04-21T07:03:48.696Z,10.9
2023-04-21T07:08:55.040Z,11.0
2023-04-21T07:19:07.822Z,11.2
2023-04-21T07:24:14.315Z,11.4
2023-04-21T07:34:27.054Z,11.7
2023-04-21T07:39:53.617Z,11.9
2023-04-21T07:44:29.983Z,12.1
2023-04-21T07:51:02.493Z,12.4
2023-04-21T07:54:52.736Z,12.8
2023-04-21T07:59:59.185Z,13.2
2023-04-21T08:05:28.051Z,13.6
2023-04-21T08:10:35.927Z,13.9
2023-04-21T08:15:18.293Z,14.1
2023-04-21T08:20:24.757Z,14.3
2023-04-21T08:25:21.140Z,14.5
2023-04-21T08:30:37.615Z,14.7
2023-04-21T08:35:54.915Z,15.0
2023-04-21T08:40:50.298Z,15.5
2023-04-21T08:45:56.729Z,16.0
2023-04-21T08:56:11.739Z,16.8
2023-04-21T09:01:15.052Z,17.0
2023-04-21T09:06:22.988Z,17.1
2023-04-21T09:11:19.115Z,17.0
2023-04-21T09:16:25.642Z,16.9
2023-04-21T09:21:42.001Z,16.9
2023-04-21T09:27:44.499Z,17.1
2023-04-21T09:31:54.789Z,17.1
2023-04-21T09:57:26.681Z,17.1
2023-04-21T10:02:33.226Z,17.1
2023-04-21T10:12:45.801Z,17.1
2023-04-21T10:17:52.248Z,17.1
2023-04-21T10:22:58.585Z,17.2
2023-04-21T10:28:18.983Z,17.3
2023-04-21T10:33:11.374Z,17.5
2023-04-21T10:38:41.753Z,17.6
2023-04-21T10:43:24.090Z,17.8
2023-04-21T10:48:50.593Z,18.0
2023-04-21T10:53:38.408Z,18.1
2023-04-21T10:58:44.795Z,18.2
2023-04-21T11:03:54.949Z,18.3
2023-04-21T11:09:00.133Z,18.4
2023-04-21T11:14:09.071Z,18.6
2023-04-21T11:19:15.654Z,18.7
2023-04-21T11:24:22.107Z,18.9
2023-04-21T11:29:28.377Z,19.1
2023-04-21T11:34:36.371Z,19.4
2023-04-21T11:39:42.740Z,19.8
2023-04-21T11:44:49.119Z,20.1
2023-04-21T11:49:55.567Z,20.5
2023-04-21T11:55:01.892Z,20.8
2023-04-21T12:00:08.264Z,21.2
2023-04-21T12:05:16.230Z,21.7
2023-04-21T12:10:22.584Z,21.7
2023-04-21T12:16:04.636Z,21.9
2023-04-21T12:20:37.074Z,21.8
2023-04-21T12:25:43.549Z,22.2
2023-04-21T12:30:49.908Z,22.5
2023-04-21T12:35:57.900Z,22.7
2023-04-21T12:41:04.246Z,22.8
2023-04-21T12:46:10.668Z,22.8
2023-04-21T12:51:17.125Z,22.8
2023-04-21T12:56:25.064Z,22.7
2023-04-21T13:01:31.555Z,22.6
2023-04-21T13:06:37.934Z,22.4
2023-04-21T13:11:44.286Z,22.3
2023-04-21T13:16:50.718Z,22.1
2023-04-21T13:21:57.109Z,21.9
2023-04-21T13:27:03.482Z,21.7
2023-04-21T13:32:09.923Z,21.6
2023-04-21T13:37:17.895Z,21.4
2023-04-21T13:42:28.261Z,21.3
2023-04-21T13:47:30.653Z,21.2
2023-04-21T13:52:37.069Z,21.1
2023-04-21T13:57:43.381Z,21.0
2023-04-21T14:02:50.203Z,21.0
2023-04-21T14:07:56.139Z,21.0
2023-04-21T14:13:02.603Z,21.0
2023-04-21T14:18:09.132Z,21.0
2023-04-21T14:23:15.561Z,21.1
2023-04-21T14:28:21.951Z,21.2
2023-04-21T14:33:35.847Z,21.2
2023-04-21T14:38:42.226Z,21.2
2023-04-21T14:43:47.708Z,21.3
2023-04-21T14:48:52.498Z,21.3
2023-04-21T14:53:58.918Z,21.4
2023-04-21T14:59:05.271Z,21.4
2023-04-21T15:04:17.404Z,21.5
2023-04-21T15:09:19.768Z,21.5
2023-04-21T15:14:57.869Z,21.5
2023-04-21T15:20:13.254Z,21.5
2023-04-21T15:25:40.760Z,21.5
2023-04-21T15:35:23.354Z,21.5
2023-04-21T15:40:53.096Z,21.4
2023-04-21T15:45:46.355Z,21.3
2023-04-21T15:50:52.789Z,21.2
2023-04-21T15:55:49.172Z,21.1
2023-04-21T16:01:05.653Z,20.9
2023-04-21T16:06:12.081Z,20.9
2023-04-21T16:12:02.407Z,20.7
2023-04-21T16:16:25.134Z,20.6
2023-04-21T16:21:55.343Z,20.4
2023-04-21T16:31:44.143Z,20.2
2023-04-21T16:52:09.614Z,19.8
2023-04-21T16:57:15.993Z,19.7
2023-04-21T17:02:22.491Z,19.6
2023-04-21T17:07:28.876Z,19.5
2023-04-21T17:12:36.396Z,19.4
2023-04-21T17:17:42.820Z,19.4
2023-04-21T17:22:49.155Z,19.3
2023-04-21T17:27:55.541Z,19.2
2023-04-21T17:33:15.479Z,19.2
2023-04-21T17:38:08.355Z,19.1
2023-04-21T17:43:14.906Z,19.1
2023-04-21T17:48:21.355Z,19.1
2023-04-21T17:53:27.692Z,19.0
2023-04-21T17:58:34.092Z,18.9
2023-04-21T18:03:40.649Z,18.9
2023-04-21T18:08:46.869Z,18.8
2023-04-21T18:13:53.300Z,18.7
2023-04-21T18:18:59.844Z,18.6
2023-04-21T18:24:45.276Z,18.4
2023-04-21T18:29:11.568Z,18.3
2023-04-21T18:34:18.974Z,18.2
2023-04-21T18:39:49.426Z,18.1
2023-04-21T18:44:31.755Z,18.0
2023-04-21T18:49:58.208Z,17.8
2023-04-21T18:54:44.715Z,17.7
2023-04-21T18:59:51.076Z,17.5
2023-04-21T19:04:47.593Z,17.2
2023-04-21T19:10:03.890Z,17.0
2023-04-21T19:15:30.271Z,16.7
2023-04-21T19:20:16.827Z,16.4
2023-04-21T19:25:23.287Z,16.2
2023-04-21T19:30:29.631Z,16.0
2023-04-21T19:36:00.059Z,15.8
2023-04-21T19:40:42.410Z,15.6
2023-04-21T19:45:48.773Z,15.4
2023-04-21T19:50:55.135Z,15.2
2023-04-21T19:56:01.671Z,15.0
2023-04-21T20:01:28.108Z,14.8
2023-04-21T20:06:38.486Z,14.6
2023-04-21T20:11:20.857Z,14.5
2023-04-21T20:16:27.350Z,14.3
2023-04-21T20:21:33.631Z,14.2
2023-04-21T20:27:01.134Z,14.1
2023-04-21T20:31:47.629Z,14.0
2023-04-21T20:36:54.000Z,13.9
2023-04-21T20:42:11.970Z,13.8
2023-04-21T20:47:06.916Z,13.7
2023-04-21T20:52:13.167Z,13.6
2023-04-21T20:57:19.582Z,13.6
2023-04-21T21:12:58.770Z,13.4
2023-04-21T21:17:45.301Z,13.3
2023-04-21T21:22:51.622Z,13.2
2023-04-21T21:27:58.003Z,13.2
2023-04-21T21:33:04.493Z,13.1
2023-04-21T21:38:30.851Z,13.1
2023-04-21T21:43:17.144Z,13.0
2023-04-21T21:48:43.724Z,13.0
2023-04-21T21:53:30.055Z,13.0
2023-04-21T21:58:26.382Z,12.9
2023-04-21T22:04:02.952Z,12.9
2023-04-21T22:10:09.357Z,12.8
2023-04-21T22:13:55.561Z,12.7
2023-04-21T22:19:01.940Z,12.7
2023-04-21T22:34:21.212Z,12.5
2023-04-21T22:39:27.668Z,12.4
2023-04-21T22:44:34.041Z,12.3
2023-04-21T22:49:40.808Z,12.2
2023-04-21T22:54:46.807Z,12.2
2023-04-21T22:59:53.173Z,12.1
2023-04-21T23:05:35.622Z,11.9
2023-04-21T23:11:07.096Z,11.9
2023-04-21T23:15:49.440Z,11.8
2023-04-21T23:21:15.991Z,11.7
2023-04-21T23:26:02.339Z,11.6
2023-04-21T23:31:08.747Z,11.6
2023-04-21T23:36:39.137Z,11.5
2023-04-21T23:41:21.498Z,11.4
2023-04-21T23:46:28.020Z,11.3
2023-04-21T23:51:34.377Z,11.2
2023-04-21T23:56:40.870Z,11.1
